Terminal Aerodrome Forecast
Issued by NWS

Home | Current Version | Previous Version | Graphics & Text | Print | Product List | Glossary On
Versions: 1 2 3 4 5 6 7 8 9 10 11 12 13 14 15 16 17 18
000
FTUS43 KMPX 250500
TAFRWF
TAF
KRWF 250539Z 2506/2606 21011KT P6SM BKN008 OVC070
     FM250700 20006KT P6SM SCT009 OVC070
     FM251300 19003KT 4SM BR OVC008
     FM251900 35005KT P6SM SCT009 OVC015 PROB30 2521/2602 5SM -SN
      BKN009 OVC020
     FM260300 35007KT 6SM -SN OVC008=

USA.gov is the U.S. government's official web portal to all federal, state and local government web resources and services.